createdAt,value
2018-09-17T00:00:07.440Z,14.30
2018-09-17T00:02:35.768Z,14.20
2018-09-17T00:05:04.172Z,14.30
2018-09-17T00:07:32.508Z,14.30
2018-09-17T00:10:00.919Z,14.30
2018-09-17T00:12:29.245Z,14.30
2018-09-17T00:14:57.607Z,14.30
2018-09-17T00:17:25.941Z,14.30
2018-09-17T00:19:54.256Z,14.20
2018-09-17T00:22:22.665Z,14.10
2018-09-17T00:24:51.056Z,14.00
2018-09-17T00:27:19.378Z,14.00
2018-09-17T00:29:47.754Z,14.00
2018-09-17T00:32:16.099Z,13.90
2018-09-17T00:34:44.436Z,13.90
2018-09-17T00:37:12.750Z,13.90
2018-09-17T00:39:41.104Z,13.90
2018-09-17T00:42:09.424Z,14.00
2018-09-17T00:44:37.780Z,13.90
2018-09-17T00:47:06.111Z,13.90
2018-09-17T00:49:34.465Z,13.90
2018-09-17T00:52:02.856Z,13.90
2018-09-17T00:54:31.252Z,13.80
2018-09-17T00:56:59.579Z,13.80
2018-09-17T00:59:27.908Z,13.80
2018-09-17T01:01:56.259Z,13.80
2018-09-17T01:04:24.628Z,13.70
2018-09-17T01:06:52.937Z,13.60
2018-09-17T01:09:26.567Z,13.60
2018-09-17T01:11:54.927Z,13.60
2018-09-17T01:14:23.257Z,13.60
2018-09-17T01:16:51.608Z,13.50
2018-09-17T01:19:19.947Z,13.50
2018-09-17T01:21:48.287Z,13.50
2018-09-17T01:24:16.655Z,13.50
2018-09-17T01:26:45.014Z,13.50
2018-09-17T01:29:13.376Z,13.50
2018-09-17T01:31:41.765Z,13.50
2018-09-17T01:34:10.178Z,13.40
2018-09-17T01:36:38.495Z,13.40
2018-09-17T01:39:09.019Z,13.40
2018-09-17T01:41:37.398Z,13.30
2018-09-17T01:44:05.905Z,13.30
2018-09-17T01:46:34.237Z,13.40
2018-09-17T01:49:02.588Z,13.40
2018-09-17T01:51:30.961Z,13.30
2018-09-17T01:53:59.272Z,13.40
2018-09-17T01:56:27.629Z,13.30
2018-09-17T01:58:55.957Z,13.30
2018-09-17T02:01:24.382Z,13.30
2018-09-17T02:03:52.754Z,13.30
2018-09-17T02:06:22.271Z,13.30
2018-09-17T02:08:50.700Z,13.20
2018-09-17T02:11:19.008Z,13.20
2018-09-17T02:13:47.329Z,13.10
2018-09-17T02:16:15.680Z,13.10
2018-09-17T02:18:44.159Z,13.10
2018-09-17T02:21:13.356Z,13.00
2018-09-17T02:23:41.816Z,12.90
2018-09-17T02:26:10.172Z,12.90
2018-09-17T02:28:38.488Z,12.90
2018-09-17T02:31:06.828Z,12.90
2018-09-17T02:33:35.153Z,12.80
2018-09-17T02:36:03.508Z,12.80
2018-09-17T02:38:31.871Z,12.80
2018-09-17T02:41:00.286Z,12.80
2018-09-17T02:43:28.659Z,12.80
2018-09-17T02:45:56.969Z,12.80
2018-09-17T02:48:25.346Z,12.80
2018-09-17T02:50:53.673Z,12.80
2018-09-17T02:53:22.042Z,12.70
2018-09-17T02:55:50.360Z,12.70
2018-09-17T02:58:18.717Z,12.70
2018-09-17T03:00:47.042Z,12.70
2018-09-17T03:03:15.408Z,12.70
2018-09-17T03:05:43.780Z,12.70
2018-09-17T03:08:12.128Z,12.80
2018-09-17T03:10:40.452Z,12.80
2018-09-17T03:13:08.802Z,12.80
2018-09-17T03:15:50.225Z,12.80
2018-09-17T03:18:29.804Z,12.70
2018-09-17T03:20:58.171Z,12.70
2018-09-17T03:23:26.527Z,12.70
2018-09-17T03:25:54.860Z,12.80
2018-09-17T03:28:23.240Z,12.70
2018-09-17T03:30:51.567Z,12.80
2018-09-17T03:33:19.997Z,12.80
2018-09-17T03:35:48.344Z,12.80
2018-09-17T03:38:35.381Z,12.80
2018-09-17T03:41:04.735Z,12.80
2018-09-17T03:43:34.137Z,12.70
2018-09-17T03:46:02.460Z,12.70
2018-09-17T03:48:31.963Z,12.70
2018-09-17T03:51:00.815Z,12.70
2018-09-17T03:53:29.500Z,12.70
2018-09-17T03:55:57.800Z,12.60
2018-09-17T03:58:26.373Z,12.60
2018-09-17T04:00:54.764Z,12.50
2018-09-17T04:03:23.161Z,12.50
2018-09-17T04:05:51.505Z,12.40
2018-09-17T04:08:19.867Z,12.40
2018-09-17T04:10:48.230Z,12.40
2018-09-17T04:13:16.603Z,12.40
2018-09-17T04:15:44.979Z,12.40
2018-09-17T04:18:13.336Z,12.40
2018-09-17T04:20:41.676Z,12.40
2018-09-17T04:23:10.026Z,12.30
2018-09-17T04:25:38.396Z,12.20
2018-09-17T04:28:06.887Z,12.20
2018-09-17T04:30:35.284Z,12.20
2018-09-17T04:33:05.049Z,12.10
2018-09-17T04:35:33.372Z,12.10
2018-09-17T04:38:01.718Z,12.10
2018-09-17T04:40:30.031Z,12.20
2018-09-17T04:42:58.389Z,12.20
2018-09-17T04:45:26.768Z,12.10
2018-09-17T04:47:55.101Z,12.10
2018-09-17T04:50:23.428Z,12.10
2018-09-17T04:52:51.803Z,12.10
2018-09-17T04:55:20.147Z,12.10
2018-09-17T04:57:48.488Z,12.10
2018-09-17T05:00:16.972Z,12.10
2018-09-17T05:02:45.345Z,12.10
2018-09-17T05:05:13.802Z,12.10
2018-09-17T05:07:42.134Z,12.00
2018-09-17T05:10:10.510Z,12.00
2018-09-17T05:12:38.874Z,12.00
2018-09-17T05:15:07.488Z,12.00
2018-09-17T05:17:35.891Z,11.90
2018-09-17T05:20:04.281Z,11.90
2018-09-17T05:22:32.620Z,11.90
2018-09-17T05:25:00.970Z,11.90
2018-09-17T05:27:29.385Z,11.90
2018-09-17T05:29:57.740Z,12.00
2018-09-17T05:32:26.115Z,12.00
2018-09-17T05:34:54.629Z,12.00
2018-09-17T05:37:22.936Z,12.00
2018-09-17T05:39:51.360Z,12.10
2018-09-17T05:42:20.675Z,12.10
2018-09-17T05:44:49.057Z,12.20
2018-09-17T05:47:17.392Z,12.20
2018-09-17T05:49:45.769Z,12.20
2018-09-17T05:52:14.123Z,12.30
2018-09-17T05:54:42.499Z,12.30
2018-09-17T05:57:10.839Z,12.40
2018-09-17T05:59:39.293Z,12.50
2018-09-17T06:02:07.768Z,12.50
2018-09-17T06:04:36.096Z,12.60
2018-09-17T06:07:04.561Z,12.70
2018-09-17T06:09:33.030Z,12.70
2018-09-17T06:12:01.329Z,12.80
2018-09-17T06:14:29.757Z,12.80
2018-09-17T06:16:58.073Z,12.90
2018-09-17T06:19:26.537Z,13.00
2018-09-17T06:21:55.101Z,13.10
2018-09-17T06:24:23.425Z,13.10
2018-09-17T06:26:51.771Z,13.20
2018-09-17T06:29:20.098Z,13.20
2018-09-17T06:31:48.459Z,13.30
2018-09-17T06:34:16.814Z,13.40
2018-09-17T06:36:45.158Z,13.40
2018-09-17T06:39:13.508Z,13.50
2018-09-17T06:41:41.963Z,13.60
2018-09-17T06:44:10.287Z,13.60
2018-09-17T06:46:38.608Z,13.70
2018-09-17T06:49:07.166Z,13.80
2018-09-17T06:51:35.497Z,13.90
2018-09-17T06:54:03.848Z,14.00
2018-09-17T06:56:32.174Z,14.10
2018-09-17T06:59:00.547Z,14.10
2018-09-17T07:01:28.874Z,14.30
2018-09-17T07:03:57.215Z,14.30
2018-09-17T07:06:25.546Z,14.40
2018-09-17T07:08:53.991Z,14.50
2018-09-17T07:11:22.341Z,14.60
2018-09-17T07:13:50.656Z,14.70
2018-09-17T07:16:19.004Z,14.80
2018-09-17T07:18:47.339Z,14.90
2018-09-17T07:21:15.644Z,15.00
2018-09-17T07:23:43.994Z,15.10
2018-09-17T07:26:12.400Z,15.10
2018-09-17T07:28:40.835Z,15.20
2018-09-17T07:31:09.193Z,15.30
2018-09-17T07:33:37.552Z,15.40
2018-09-17T07:36:05.941Z,15.50
2018-09-17T07:38:34.316Z,15.60
2018-09-17T07:41:02.690Z,15.70
2018-09-17T07:43:31.076Z,15.80
2018-09-17T07:45:59.418Z,15.90
2018-09-17T07:48:27.739Z,16.10
2018-09-17T07:50:56.076Z,16.10
2018-09-17T07:53:24.464Z,16.30
2018-09-17T07:55:52.848Z,16.40
2018-09-17T07:58:21.168Z,16.50
2018-09-17T08:00:49.532Z,16.60
2018-09-17T08:03:17.914Z,16.60
2018-09-17T08:05:46.373Z,16.70
2018-09-17T08:08:14.658Z,16.80
2018-09-17T08:10:43.012Z,16.90
2018-09-17T08:13:11.360Z,17.00
2018-09-17T08:15:39.684Z,17.10
2018-09-17T08:18:08.029Z,17.20
2018-09-17T08:20:36.380Z,17.40
2018-09-17T08:23:04.715Z,17.50
2018-09-17T08:25:33.091Z,17.60
2018-09-17T08:28:01.408Z,17.70
2018-09-17T08:30:29.790Z,17.80
2018-09-17T08:32:58.148Z,17.90
2018-09-17T08:35:26.507Z,18.00
2018-09-17T08:37:54.854Z,18.10
2018-09-17T08:40:23.201Z,18.20
2018-09-17T08:42:51.541Z,18.30
2018-09-17T08:45:19.962Z,18.40
2018-09-17T08:47:48.284Z,18.50
2018-09-17T08:50:16.667Z,18.80
2018-09-17T08:52:45.035Z,19.00
2018-09-17T08:55:18.833Z,19.00
2018-09-17T08:57:52.716Z,19.10
2018-09-17T09:00:21.287Z,19.40
2018-09-17T09:02:50.192Z,19.50
2018-09-17T09:05:24.111Z,19.60
2018-09-17T09:07:53.576Z,19.60
2018-09-17T09:10:27.253Z,19.80
2018-09-17T09:12:56.368Z,20.00
2018-09-17T09:15:30.505Z,20.10
2018-09-17T09:17:58.837Z,20.30
2018-09-17T09:20:27.192Z,20.30
2018-09-17T09:22:55.577Z,20.40
2018-09-17T09:25:24.438Z,20.60
2018-09-17T09:27:52.807Z,20.80
2018-09-17T09:30:21.258Z,20.90
2018-09-17T09:32:49.644Z,21.10
2018-09-17T09:35:18.032Z,21.20
2018-09-17T09:37:46.477Z,21.20
2018-09-17T09:40:14.984Z,21.40
2018-09-17T09:42:44.196Z,21.60
2018-09-17T09:45:12.904Z,21.70
2018-09-17T09:47:41.241Z,21.80
2018-09-17T09:50:09.583Z,21.80
2018-09-17T09:52:37.989Z,21.90
2018-09-17T09:55:06.341Z,21.70
2018-09-17T09:57:34.743Z,21.80
2018-09-17T10:00:03.099Z,22.00
2018-09-17T10:02:35.671Z,22.20
2018-09-17T10:05:05.137Z,22.40
2018-09-17T10:07:33.514Z,22.40
2018-09-17T10:10:07.140Z,22.70
2018-09-17T10:12:40.928Z,22.70
2018-09-17T10:15:15.603Z,22.90
2018-09-17T10:17:49.310Z,23.10
2018-09-17T10:20:17.644Z,23.30
2018-09-17T10:22:45.975Z,23.30
2018-09-17T10:25:14.328Z,23.50
2018-09-17T10:27:42.680Z,23.50
2018-09-17T10:30:11.045Z,23.60
2018-09-17T10:32:39.444Z,23.70
2018-09-17T10:35:07.792Z,23.60
2018-09-17T10:37:36.157Z,23.80
2018-09-17T10:40:04.562Z,24.00
2018-09-17T10:42:32.932Z,23.90
2018-09-17T10:45:01.296Z,24.00
2018-09-17T10:47:29.677Z,24.30
2018-09-17T10:49:58.013Z,24.60
2018-09-17T10:52:26.347Z,25.10
2018-09-17T10:54:54.699Z,25.30
2018-09-17T10:57:23.063Z,25.10
2018-09-17T10:59:51.361Z,25.90
2018-09-17T11:02:19.716Z,26.60
2018-09-17T11:04:48.083Z,27.10
2018-09-17T11:07:16.445Z,26.60
2018-09-17T11:09:44.769Z,27.30
2018-09-17T11:12:13.112Z,28.10
2018-09-17T11:14:41.571Z,28.60
2018-09-17T11:17:09.952Z,28.90
2018-09-17T11:19:38.256Z,28.60
2018-09-17T11:22:06.659Z,28.20
2018-09-17T11:24:35.025Z,28.50
2018-09-17T11:27:03.411Z,28.10
2018-09-17T11:29:31.744Z,28.70
2018-09-17T11:32:00.123Z,28.40
2018-09-17T11:34:28.523Z,28.60
2018-09-17T11:36:56.855Z,28.60
2018-09-17T11:39:25.247Z,29.50
2018-09-17T11:41:53.560Z,29.30
2018-09-17T11:44:21.896Z,28.70
2018-09-17T11:46:50.239Z,29.50
2018-09-17T11:49:18.583Z,29.40
2018-09-17T11:51:47.046Z,29.00
2018-09-17T11:54:15.379Z,29.00
2018-09-17T11:56:43.725Z,28.80
2018-09-17T11:59:12.049Z,28.90
2018-09-17T12:01:45.757Z,29.20
2018-09-17T12:04:16.230Z,29.50
2018-09-17T12:06:50.252Z,29.60
2018-09-17T12:09:18.651Z,29.80
2018-09-17T12:11:47.005Z,30.10
2018-09-17T12:14:15.360Z,30.20
2018-09-17T12:16:43.722Z,30.20
2018-09-17T12:19:12.099Z,30.70
2018-09-17T12:21:40.504Z,30.50
2018-09-17T12:24:08.832Z,30.30
2018-09-17T12:26:37.240Z,30.10
2018-09-17T12:29:05.676Z,29.50
2018-09-17T12:31:34.079Z,29.40
2018-09-17T12:34:02.529Z,29.40
2018-09-17T12:36:31.500Z,30.10
2018-09-17T12:38:59.951Z,30.30
2018-09-17T12:41:28.307Z,30.30
2018-09-17T12:43:56.719Z,30.40
2018-09-17T12:46:25.099Z,30.40
2018-09-17T12:48:53.573Z,30.00
2018-09-17T12:51:22.022Z,29.60
2018-09-17T12:53:50.399Z,29.50
2018-09-17T12:56:18.731Z,30.30
2018-09-17T12:58:47.204Z,30.50
2018-09-17T13:01:15.575Z,30.80
2018-09-17T13:03:43.911Z,30.80
2018-09-17T13:06:12.390Z,31.00
2018-09-17T13:08:40.833Z,31.30
2018-09-17T13:11:09.408Z,31.70
2018-09-17T13:13:39.564Z,31.60
2018-09-17T13:16:08.513Z,31.80
2018-09-17T13:18:36.897Z,32.00
2018-09-17T13:21:05.349Z,32.50
2018-09-17T13:23:33.910Z,32.60
2018-09-17T13:26:02.379Z,32.40
2018-09-17T13:28:30.958Z,32.00
2018-09-17T13:30:59.422Z,31.60
2018-09-17T13:33:27.827Z,31.00
2018-09-17T13:35:56.335Z,30.90
2018-09-17T13:38:24.769Z,31.10
2018-09-17T13:40:53.111Z,31.10
2018-09-17T13:43:21.486Z,31.30
2018-09-17T13:45:49.932Z,31.60
2018-09-17T13:48:18.374Z,31.70
2018-09-17T13:50:46.789Z,31.90
2018-09-17T13:53:15.263Z,31.90
2018-09-17T13:55:43.671Z,31.60
2018-09-17T13:58:12.102Z,32.10
2018-09-17T14:00:40.532Z,32.20
2018-09-17T14:03:09.051Z,32.00
2018-09-17T14:05:37.434Z,31.80
2018-09-17T14:08:05.929Z,31.70
2018-09-17T14:10:34.341Z,31.80
2018-09-17T14:13:02.705Z,31.90
2018-09-17T14:15:31.100Z,32.40
2018-09-17T14:17:59.568Z,32.50
2018-09-17T14:20:28.022Z,32.70
2018-09-17T14:22:56.639Z,32.70
2018-09-17T14:25:25.081Z,32.80
2018-09-17T14:27:53.472Z,32.70
2018-09-17T14:30:21.855Z,32.50
2018-09-17T14:32:55.561Z,33.00
2018-09-17T14:35:23.878Z,32.70
2018-09-17T14:37:52.214Z,32.10
2018-09-17T14:40:20.547Z,32.30
2018-09-17T14:42:48.948Z,31.40
2018-09-17T14:45:17.336Z,31.00
2018-09-17T14:47:45.723Z,31.30
2018-09-17T14:50:14.124Z,31.80
2018-09-17T14:52:42.455Z,32.20
2018-09-17T14:55:10.843Z,32.40
2018-09-17T14:57:39.254Z,33.00
2018-09-17T15:00:07.659Z,33.60
2018-09-17T15:02:36.058Z,33.90
2018-09-17T15:05:04.554Z,33.10
2018-09-17T15:07:33.109Z,33.20
2018-09-17T15:10:01.559Z,33.30
2018-09-17T15:12:30.044Z,33.00
2018-09-17T15:14:58.423Z,32.90
2018-09-17T15:17:26.809Z,33.10
2018-09-17T15:19:55.239Z,33.40
2018-09-17T15:22:23.746Z,32.70
2018-09-17T15:24:52.168Z,31.80
2018-09-17T15:27:20.541Z,31.10
2018-09-17T15:29:49.250Z,31.10
2018-09-17T15:32:17.769Z,30.90
2018-09-17T15:34:46.126Z,30.90
2018-09-17T15:37:14.525Z,30.70
2018-09-17T15:39:42.942Z,30.70
2018-09-17T15:42:11.376Z,30.00
2018-09-17T15:44:39.748Z,29.70
2018-09-17T15:47:08.132Z,29.80
2018-09-17T15:49:36.508Z,29.20
2018-09-17T15:52:04.907Z,29.20
2018-09-17T15:54:33.260Z,28.90
2018-09-17T15:57:01.760Z,28.70
2018-09-17T15:59:30.171Z,28.50
2018-09-17T16:01:58.525Z,28.40
2018-09-17T16:04:26.909Z,28.40
2018-09-17T16:06:55.272Z,28.20
2018-09-17T16:09:23.677Z,28.20
2018-09-17T16:11:52.156Z,28.00
2018-09-17T16:14:20.578Z,27.80
2018-09-17T16:16:48.939Z,27.80
2018-09-17T16:19:17.433Z,27.90
2018-09-17T16:21:45.760Z,27.70
2018-09-17T16:24:14.200Z,27.70
2018-09-17T16:26:42.557Z,27.80
2018-09-17T16:29:10.944Z,27.50
2018-09-17T16:31:39.309Z,27.30
2018-09-17T16:34:07.761Z,27.20
2018-09-17T16:36:36.266Z,27.20
2018-09-17T16:39:07.298Z,27.10
2018-09-17T16:41:35.748Z,26.90
2018-09-17T16:44:04.190Z,26.90
2018-09-17T16:46:34.518Z,26.90
2018-09-17T16:49:04.610Z,26.90
2018-09-17T16:51:32.993Z,26.90
2018-09-17T16:54:01.337Z,26.90
2018-09-17T16:56:29.880Z,26.90
2018-09-17T16:59:00.440Z,26.80
2018-09-17T17:01:30.743Z,26.70
2018-09-17T17:04:00.917Z,26.60
2018-09-17T17:06:37.843Z,26.50
2018-09-17T17:09:10.701Z,26.40
2018-09-17T17:11:41.159Z,26.20
2018-09-17T17:14:11.581Z,26.10
2018-09-17T17:16:41.360Z,25.90
2018-09-17T17:19:09.859Z,25.80
2018-09-17T17:21:38.213Z,25.70
2018-09-17T17:24:06.784Z,25.50
2018-09-17T17:26:35.271Z,25.40
2018-09-17T17:29:03.768Z,25.30
2018-09-17T17:31:32.129Z,25.10
2018-09-17T17:34:00.630Z,24.90
2018-09-17T17:36:30.045Z,24.70
2018-09-17T17:38:58.456Z,24.60
2018-09-17T17:41:26.884Z,24.40
2018-09-17T17:43:55.401Z,24.30
2018-09-17T17:46:23.845Z,24.20
2018-09-17T17:48:52.171Z,24.00
2018-09-17T17:51:20.604Z,23.90
2018-09-17T17:53:48.997Z,23.70
2018-09-17T17:56:17.448Z,23.60
2018-09-17T17:58:45.859Z,23.40
2018-09-17T18:01:14.472Z,23.30
2018-09-17T18:03:42.696Z,23.10
2018-09-17T18:06:11.049Z,23.00
2018-09-17T18:08:39.553Z,22.90
2018-09-17T18:11:07.913Z,22.80
2018-09-17T18:13:36.381Z,22.70
2018-09-17T18:16:04.861Z,22.60
2018-09-17T18:18:35.318Z,22.50
2018-09-17T18:21:03.901Z,22.30
2018-09-17T18:23:32.312Z,22.30
2018-09-17T18:26:00.693Z,22.10
2018-09-17T18:28:29.494Z,22.00
2018-09-17T18:30:59.760Z,22.00
2018-09-17T18:33:30.298Z,21.90
2018-09-17T18:36:00.680Z,21.80
2018-09-17T18:38:31.420Z,21.70
2018-09-17T18:41:02.113Z,21.60
2018-09-17T18:43:33.598Z,21.50
2018-09-17T18:46:11.574Z,21.40
2018-09-17T18:48:46.800Z,21.30
2018-09-17T18:51:16.890Z,21.30
2018-09-17T18:53:46.486Z,21.10
2018-09-17T18:56:14.953Z,21.00
2018-09-17T18:58:43.498Z,21.00
2018-09-17T19:01:12.253Z,20.90
2018-09-17T19:03:41.024Z,20.70
2018-09-17T19:06:12.384Z,20.60
2018-09-17T19:08:43.350Z,20.60
2018-09-17T19:11:12.942Z,20.50
2018-09-17T19:13:46.646Z,20.40
2018-09-17T19:16:19.974Z,20.30
2018-09-17T19:18:51.633Z,20.30
2018-09-17T19:21:26.152Z,20.10
2018-09-17T19:24:00.136Z,20.00
2018-09-17T19:26:32.049Z,19.90
2018-09-17T19:29:12.044Z,19.90
2018-09-17T19:31:50.143Z,19.80
2018-09-17T19:34:21.868Z,19.70
2018-09-17T19:36:52.826Z,19.60
2018-09-17T19:39:32.660Z,19.60
2018-09-17T19:42:03.448Z,19.60
2018-09-17T19:44:33.345Z,19.40
2018-09-17T19:47:01.784Z,19.40
2018-09-17T19:49:31.477Z,19.30
2018-09-17T19:52:05.897Z,19.20
2018-09-17T19:54:34.325Z,19.20
2018-09-17T19:57:08.384Z,19.10
2018-09-17T19:59:42.332Z,19.10
2018-09-17T20:02:11.845Z,19.00
2018-09-17T20:04:47.265Z,18.90
2018-09-17T20:07:15.717Z,18.90
2018-09-17T20:09:44.176Z,18.80
2018-09-17T20:12:12.599Z,18.80
2018-09-17T20:14:42.080Z,18.80
2018-09-17T20:17:11.874Z,18.70
2018-09-17T20:19:46.488Z,18.70
2018-09-17T20:22:15.041Z,18.60
2018-09-17T20:24:43.935Z,18.50
2018-09-17T20:27:12.633Z,18.50
2018-09-17T20:29:42.533Z,18.40
2018-09-17T20:32:12.958Z,18.40
2018-09-17T20:34:41.864Z,18.30
2018-09-17T20:37:11.867Z,18.20
2018-09-17T20:39:43.641Z,18.20
2018-09-17T20:42:12.609Z,18.10
2018-09-17T20:44:42.341Z,18.10
2018-09-17T20:47:11.121Z,18.00
2018-09-17T20:49:39.685Z,18.00
2018-09-17T20:52:08.132Z,18.00
2018-09-17T20:54:36.487Z,17.90
2018-09-17T20:57:04.822Z,17.90
2018-09-17T20:59:33.200Z,17.80
2018-09-17T21:02:01.589Z,17.80
2018-09-17T21:04:29.951Z,17.70
2018-09-17T21:06:58.503Z,17.70
2018-09-17T21:09:26.905Z,17.60
2018-09-17T21:11:55.280Z,17.60
2018-09-17T21:14:23.618Z,17.50
2018-09-17T21:16:51.961Z,17.40
2018-09-17T21:19:20.451Z,17.40
2018-09-17T21:21:48.806Z,17.40
2018-09-17T21:24:17.172Z,17.40
2018-09-17T21:26:45.546Z,17.40
2018-09-17T21:29:13.983Z,17.30
2018-09-17T21:31:42.540Z,17.30
2018-09-17T21:34:10.912Z,17.30
2018-09-17T21:36:39.367Z,17.20
2018-09-17T21:39:10.164Z,17.20
2018-09-17T21:41:38.616Z,17.20
2018-09-17T21:44:07.071Z,17.20
2018-09-17T21:46:35.459Z,17.10
2018-09-17T21:49:03.864Z,17.10
2018-09-17T21:51:32.253Z,17.10
2018-09-17T21:54:00.630Z,17.00
2018-09-17T21:56:28.990Z,17.00
2018-09-17T21:58:57.373Z,16.90
2018-09-17T22:01:25.713Z,16.80
2018-09-17T22:03:54.092Z,16.80
2018-09-17T22:06:22.456Z,16.80
2018-09-17T22:08:50.829Z,16.80
2018-09-17T22:11:19.228Z,16.70
2018-09-17T22:13:47.804Z,16.80
2018-09-17T22:16:16.125Z,16.70
2018-09-17T22:18:44.507Z,16.70
2018-09-17T22:21:12.881Z,16.70
2018-09-17T22:23:41.207Z,16.60
2018-09-17T22:26:09.577Z,16.60
2018-09-17T22:28:37.918Z,16.50
2018-09-17T22:31:06.615Z,16.50
2018-09-17T22:33:34.960Z,16.50
2018-09-17T22:36:03.788Z,16.50
2018-09-17T22:38:32.096Z,16.40
2018-09-17T22:41:00.472Z,16.40
2018-09-17T22:43:28.788Z,16.40
2018-09-17T22:45:57.115Z,16.30
2018-09-17T22:48:25.704Z,16.20
2018-09-17T22:50:54.055Z,16.20
2018-09-17T22:53:22.441Z,16.20
2018-09-17T22:55:50.844Z,16.20
2018-09-17T22:58:19.188Z,16.10
2018-09-17T23:00:47.532Z,16.10
2018-09-17T23:03:15.949Z,16.00
2018-09-17T23:05:44.271Z,16.00
2018-09-17T23:08:12.636Z,16.00
2018-09-17T23:10:41.060Z,15.90
2018-09-17T23:13:09.412Z,15.90
2018-09-17T23:15:37.790Z,15.90
2018-09-17T23:18:06.224Z,15.90
2018-09-17T23:20:34.544Z,15.80
2018-09-17T23:23:02.884Z,15.80
2018-09-17T23:25:31.240Z,15.70
2018-09-17T23:27:59.610Z,15.80
2018-09-17T23:30:27.961Z,15.70
2018-09-17T23:32:56.284Z,15.70
2018-09-17T23:35:24.687Z,15.70
2018-09-17T23:37:53.106Z,15.70
2018-09-17T23:40:21.541Z,15.60
2018-09-17T23:42:49.883Z,15.60
2018-09-17T23:45:18.208Z,15.60
2018-09-17T23:47:46.579Z,15.60
2018-09-17T23:50:15.249Z,15.50
2018-09-17T23:52:43.553Z,15.50
2018-09-17T23:55:11.880Z,15.40
2018-09-17T23:57:40.266Z,15.30
